createdAt,value
2019-06-27T00:01:52.896Z,22.90
2019-06-27T00:04:33.260Z,22.80
2019-06-27T00:07:10.814Z,22.70
2019-06-27T00:09:52.282Z,22.70
2019-06-27T00:12:30.542Z,22.70
2019-06-27T00:15:06.220Z,22.60
2019-06-27T00:17:42.744Z,22.50
2019-06-27T00:20:19.395Z,22.50
2019-06-27T00:22:54.431Z,22.40
2019-06-27T00:25:32.288Z,22.40
2019-06-27T00:28:02.627Z,22.40
2019-06-27T00:30:38.408Z,22.30
2019-06-27T00:33:19.279Z,22.20
2019-06-27T00:35:58.565Z,22.20
2019-06-27T00:38:36.170Z,22.20
2019-06-27T00:41:13.086Z,22.10
2019-06-27T00:43:50.642Z,22.10
2019-06-27T00:46:21.667Z,22.10
2019-06-27T00:48:59.986Z,22.00
2019-06-27T00:51:40.135Z,22.00
2019-06-27T00:54:19.928Z,22.00
2019-06-27T00:57:09.501Z,21.90
2019-06-27T00:59:35.470Z,22.00
2019-06-27T01:02:12.759Z,22.00
2019-06-27T01:04:51.041Z,22.00
2019-06-27T01:07:29.494Z,22.00
2019-06-27T01:10:12.905Z,22.00
2019-06-27T01:12:49.898Z,21.90
2019-06-27T01:15:28.826Z,21.90
2019-06-27T01:18:10.210Z,21.90
2019-06-27T01:21:05.169Z,21.80
2019-06-27T01:23:39.379Z,21.80
2019-06-27T01:26:13.927Z,21.80
2019-06-27T01:28:51.387Z,21.80
2019-06-27T01:31:29.987Z,21.80
2019-06-27T01:34:10.772Z,21.70
2019-06-27T01:36:51.531Z,21.70
2019-06-27T01:39:26.298Z,21.60
2019-06-27T01:42:05.092Z,21.50
2019-06-27T01:44:46.177Z,21.40
2019-06-27T01:47:25.106Z,21.40
2019-06-27T01:50:03.267Z,21.30
2019-06-27T01:52:40.375Z,21.30
2019-06-27T01:55:18.814Z,21.30
2019-06-27T01:57:53.425Z,21.10
2019-06-27T02:00:33.106Z,21.00
2019-06-27T02:03:15.095Z,21.00
2019-06-27T02:05:52.562Z,21.00
2019-06-27T02:08:30.593Z,20.90
2019-06-27T02:11:10.918Z,21.00
2019-06-27T02:13:50.151Z,21.00
2019-06-27T02:16:28.736Z,21.00
2019-06-27T02:19:07.753Z,21.10
2019-06-27T02:21:44.322Z,21.10
2019-06-27T02:24:23.963Z,21.10
2019-06-27T02:27:04.551Z,21.10
2019-06-27T02:29:42.291Z,21.20
2019-06-27T02:32:19.920Z,21.20
2019-06-27T02:34:56.680Z,21.10
2019-06-27T02:37:34.679Z,21.00
2019-06-27T02:40:13.264Z,21.00
2019-06-27T02:42:53.269Z,20.90
2019-06-27T02:45:22.187Z,20.90
2019-06-27T02:47:59.517Z,20.90
2019-06-27T02:50:33.591Z,21.00
2019-06-27T02:53:11.291Z,21.00
2019-06-27T02:55:48.034Z,21.00
2019-06-27T02:58:30.942Z,21.00
2019-06-27T03:00:57.137Z,20.90
2019-06-27T03:03:32.596Z,20.90
2019-06-27T03:06:06.760Z,20.90
2019-06-27T03:08:44.827Z,20.90
2019-06-27T03:11:23.850Z,21.00
2019-06-27T03:13:59.503Z,21.00
2019-06-27T03:16:42.648Z,20.90
2019-06-27T03:19:23.167Z,20.90
2019-06-27T03:22:05.829Z,20.90
2019-06-27T03:24:44.394Z,20.90
2019-06-27T03:27:22.226Z,20.90
2019-06-27T03:30:02.860Z,20.90
2019-06-27T03:32:42.839Z,20.90
2019-06-27T03:35:18.151Z,21.00
2019-06-27T03:37:54.714Z,21.00
2019-06-27T03:40:31.380Z,21.00
2019-06-27T03:43:00.785Z,21.00
2019-06-27T03:45:35.519Z,21.00
2019-06-27T03:48:15.521Z,21.10
2019-06-27T03:50:55.851Z,21.20
2019-06-27T03:53:33.264Z,21.30
2019-06-27T03:56:08.287Z,21.50
2019-06-27T03:58:47.132Z,21.60
2019-06-27T04:01:21.240Z,21.70
2019-06-27T04:03:59.523Z,21.80
2019-06-27T04:06:39.160Z,21.90
2019-06-27T04:09:17.354Z,22.00
2019-06-27T04:11:51.702Z,22.20
2019-06-27T04:14:28.430Z,22.40
2019-06-27T04:17:05.267Z,22.50
2019-06-27T04:19:43.941Z,22.60
2019-06-27T04:22:18.063Z,22.80
2019-06-27T04:24:55.519Z,22.90
2019-06-27T04:27:33.936Z,23.00
2019-06-27T04:30:13.264Z,23.20
2019-06-27T04:32:50.575Z,23.30
2019-06-27T04:35:28.237Z,23.50
2019-06-27T04:38:09.800Z,23.60
2019-06-27T04:40:48.489Z,23.60
2019-06-27T04:43:25.171Z,23.90
2019-06-27T04:46:03.126Z,23.80
2019-06-27T04:48:38.990Z,24.00
2019-06-27T04:51:20.117Z,24.10
2019-06-27T04:53:56.765Z,24.20
2019-06-27T04:56:35.653Z,24.20
2019-06-27T04:59:04.453Z,24.30
2019-06-27T05:01:43.268Z,24.40
2019-06-27T05:04:18.219Z,24.60
2019-06-27T05:06:55.937Z,24.80
2019-06-27T05:09:35.476Z,24.90
2019-06-27T05:12:16.009Z,25.00
2019-06-27T05:14:55.363Z,25.10
2019-06-27T05:17:31.914Z,25.20
2019-06-27T05:20:09.961Z,25.30
2019-06-27T05:22:47.110Z,25.40
2019-06-27T05:25:20.723Z,25.60
2019-06-27T05:27:57.543Z,25.70
2019-06-27T05:30:34.168Z,25.90
2019-06-27T05:33:12.777Z,26.00
2019-06-27T05:35:50.642Z,26.20
2019-06-27T05:38:26.072Z,26.20
2019-06-27T05:41:00.882Z,26.30
2019-06-27T05:43:39.662Z,26.30
2019-06-27T05:46:17.256Z,26.50
2019-06-27T05:48:57.848Z,26.40
2019-06-27T05:51:33.274Z,26.40
2019-06-27T05:54:08.964Z,26.50
2019-06-27T05:56:44.475Z,26.50
2019-06-27T05:59:19.479Z,26.50
2019-06-27T06:01:57.266Z,26.50
2019-06-27T06:04:33.235Z,26.50
2019-06-27T06:07:13.145Z,26.50
2019-06-27T06:09:49.129Z,26.50
2019-06-27T06:12:23.267Z,26.50
2019-06-27T06:15:00.591Z,26.50
2019-06-27T06:17:37.920Z,26.50
2019-06-27T06:20:11.607Z,26.60
2019-06-27T06:22:50.598Z,26.70
2019-06-27T06:25:25.785Z,26.70
2019-06-27T06:27:56.213Z,26.70
2019-06-27T06:30:43.927Z,26.70
2019-06-27T06:33:19.453Z,26.80
2019-06-27T06:35:55.918Z,26.90
2019-06-27T06:38:34.632Z,27.00
2019-06-27T06:41:12.145Z,27.10
2019-06-27T06:43:47.120Z,27.10
2019-06-27T06:46:26.387Z,27.20
2019-06-27T06:49:03.265Z,27.30
2019-06-27T06:51:42.464Z,27.40
2019-06-27T06:54:20.456Z,27.40
2019-06-27T06:57:01.955Z,27.50
2019-06-27T06:59:39.220Z,27.50
2019-06-27T07:02:19.072Z,27.40
2019-06-27T07:04:52.583Z,27.40
2019-06-27T07:07:28.834Z,27.50
2019-06-27T07:10:04.318Z,27.60
2019-06-27T07:12:41.170Z,27.70
2019-06-27T07:15:19.551Z,27.70
2019-06-27T07:17:56.221Z,27.80
2019-06-27T07:20:35.225Z,28.00
2019-06-27T07:23:12.274Z,28.10
2019-06-27T07:25:52.251Z,27.80
2019-06-27T07:28:28.336Z,28.40
2019-06-27T07:31:17.356Z,28.50
2019-06-27T07:33:42.985Z,28.50
2019-06-27T07:36:13.267Z,28.60
2019-06-27T07:38:53.265Z,28.60
2019-06-27T07:41:28.096Z,28.80
2019-06-27T07:44:03.757Z,28.90
2019-06-27T07:46:42.635Z,29.00
2019-06-27T07:49:22.422Z,29.10
2019-06-27T07:51:59.439Z,29.10
2019-06-27T07:54:40.062Z,29.20
2019-06-27T07:57:20.174Z,29.30
2019-06-27T08:00:03.265Z,29.30
2019-06-27T08:02:40.371Z,29.30
2019-06-27T08:05:18.251Z,29.30
2019-06-27T08:07:55.125Z,29.40
2019-06-27T08:10:31.796Z,29.50
2019-06-27T08:13:11.363Z,29.60
2019-06-27T08:15:50.928Z,29.70
2019-06-27T08:18:28.182Z,29.70
2019-06-27T08:21:09.751Z,29.80
2019-06-27T08:23:49.144Z,29.90
2019-06-27T08:26:29.522Z,29.90
2019-06-27T08:29:04.581Z,30.10
2019-06-27T08:31:51.346Z,30.10
2019-06-27T08:34:21.271Z,30.10
2019-06-27T08:36:59.789Z,30.20
2019-06-27T08:39:36.562Z,30.30
2019-06-27T08:42:17.050Z,30.50
2019-06-27T08:44:53.269Z,30.60
2019-06-27T08:47:30.301Z,30.60
2019-06-27T08:50:11.113Z,30.70
2019-06-27T08:52:46.842Z,30.70
2019-06-27T08:55:26.407Z,30.70
2019-06-27T08:58:02.518Z,30.60
2019-06-27T09:00:45.743Z,30.70
2019-06-27T09:03:17.132Z,30.60
2019-06-27T09:05:58.734Z,30.60
2019-06-27T09:08:38.638Z,30.60
2019-06-27T09:11:15.170Z,30.60
2019-06-27T09:13:53.024Z,30.70
2019-06-27T09:16:30.809Z,30.70
2019-06-27T09:19:12.084Z,30.70
2019-06-27T09:21:50.190Z,30.60
2019-06-27T09:24:27.774Z,30.50
2019-06-27T09:27:08.699Z,30.60
2019-06-27T09:29:48.719Z,30.50
2019-06-27T09:32:31.698Z,30.50
2019-06-27T09:35:11.325Z,30.50
2019-06-27T09:37:49.524Z,30.50
2019-06-27T09:40:31.295Z,30.50
2019-06-27T09:43:13.267Z,30.50
2019-06-27T09:45:49.343Z,30.70
2019-06-27T09:48:25.963Z,30.80
2019-06-27T09:51:02.826Z,30.90
2019-06-27T09:53:40.929Z,30.80
2019-06-27T09:56:19.636Z,30.90
2019-06-27T09:58:59.530Z,31.00
2019-06-27T10:01:37.191Z,31.10
2019-06-27T10:04:13.267Z,31.30
2019-06-27T10:06:49.595Z,31.30
2019-06-27T10:09:28.419Z,31.10
2019-06-27T10:12:07.580Z,31.00
2019-06-27T10:14:46.198Z,31.10
2019-06-27T10:17:24.878Z,31.10
2019-06-27T10:20:03.267Z,31.10
2019-06-27T10:22:38.219Z,31.20
2019-06-27T10:25:17.013Z,31.30
2019-06-27T10:27:58.426Z,31.20
2019-06-27T10:30:37.219Z,31.30
2019-06-27T10:33:15.649Z,31.30
2019-06-27T10:35:55.878Z,31.40
2019-06-27T10:38:37.922Z,31.40
2019-06-27T10:41:16.117Z,31.50
2019-06-27T10:43:52.271Z,31.60
2019-06-27T10:46:31.909Z,31.50
2019-06-27T10:49:08.478Z,31.30
2019-06-27T10:51:45.806Z,31.30
2019-06-27T10:54:21.077Z,31.30
2019-06-27T10:56:57.821Z,31.10
2019-06-27T10:59:26.777Z,31.10
2019-06-27T11:02:01.524Z,31.10
2019-06-27T11:04:36.524Z,31.10
2019-06-27T11:07:14.738Z,31.30
2019-06-27T11:09:50.281Z,31.40
2019-06-27T11:12:34.426Z,31.40
2019-06-27T11:15:11.185Z,31.40
2019-06-27T11:17:46.701Z,31.40
2019-06-27T11:20:23.106Z,31.40
2019-06-27T11:23:01.589Z,31.50
2019-06-27T11:25:44.969Z,31.60
2019-06-27T11:28:21.092Z,31.50
2019-06-27T11:30:59.040Z,31.40
2019-06-27T11:33:36.929Z,31.50
2019-06-27T11:36:14.456Z,31.60
2019-06-27T11:38:53.196Z,31.60
2019-06-27T11:41:29.525Z,31.60
2019-06-27T11:44:11.099Z,31.60
2019-06-27T11:46:46.621Z,31.50
2019-06-27T11:49:24.855Z,31.40
2019-06-27T11:52:05.580Z,31.50
2019-06-27T11:54:43.425Z,31.60
2019-06-27T11:57:19.099Z,31.70
2019-06-27T11:59:57.543Z,31.60
2019-06-27T12:02:37.014Z,31.50
2019-06-27T12:05:14.035Z,31.40
2019-06-27T12:07:52.434Z,31.60
2019-06-27T12:10:33.290Z,31.60
2019-06-27T12:13:09.339Z,31.80
2019-06-27T12:15:51.745Z,31.50
2019-06-27T12:18:31.614Z,31.40
2019-06-27T12:21:14.086Z,31.60
2019-06-27T12:23:50.209Z,31.80
2019-06-27T12:26:27.941Z,31.80
2019-06-27T12:29:06.403Z,31.80
2019-06-27T12:31:51.334Z,31.60
2019-06-27T12:34:29.700Z,31.50
2019-06-27T12:37:08.842Z,31.60
2019-06-27T12:39:43.961Z,31.80
2019-06-27T12:42:31.603Z,32.10
2019-06-27T12:44:59.610Z,32.20
2019-06-27T12:47:36.065Z,32.10
2019-06-27T12:50:13.044Z,31.90
2019-06-27T12:52:52.474Z,31.60
2019-06-27T12:55:33.971Z,31.70
2019-06-27T12:58:13.235Z,31.90
2019-06-27T13:00:50.377Z,32.20
2019-06-27T13:03:29.170Z,32.10
2019-06-27T13:06:09.910Z,32.20
2019-06-27T13:08:47.144Z,31.90
2019-06-27T13:11:21.857Z,31.60
2019-06-27T13:13:55.856Z,31.70
2019-06-27T13:16:36.375Z,32.00
2019-06-27T13:19:12.184Z,31.90
2019-06-27T13:21:52.458Z,31.90
2019-06-27T13:24:29.895Z,32.20
2019-06-27T13:27:08.119Z,32.50
2019-06-27T13:29:44.573Z,32.60
2019-06-27T13:32:25.569Z,32.50
2019-06-27T13:35:02.624Z,32.30
2019-06-27T13:37:38.420Z,32.40
2019-06-27T13:40:18.607Z,32.50
2019-06-27T13:42:56.108Z,32.60
2019-06-27T13:45:39.922Z,32.50
2019-06-27T13:48:17.240Z,32.60
2019-06-27T13:50:57.806Z,32.50
2019-06-27T13:53:37.756Z,32.20
2019-06-27T13:56:19.297Z,32.50
2019-06-27T13:58:57.688Z,32.90
2019-06-27T14:01:39.310Z,32.80
2019-06-27T14:04:16.662Z,32.80
2019-06-27T14:06:59.458Z,32.90
2019-06-27T14:09:51.054Z,33.10
2019-06-27T14:12:16.884Z,33.30
2019-06-27T14:14:59.657Z,33.20
2019-06-27T14:17:33.166Z,33.00
2019-06-27T14:20:12.702Z,32.60
2019-06-27T14:22:47.222Z,32.50
2019-06-27T14:25:19.179Z,32.70
2019-06-27T14:27:54.173Z,33.00
2019-06-27T14:30:33.276Z,33.00
2019-06-27T14:33:13.265Z,32.70
2019-06-27T14:35:53.265Z,32.70
2019-06-27T14:38:30.748Z,32.90
2019-06-27T14:41:07.383Z,32.60
2019-06-27T14:43:45.283Z,32.60
2019-06-27T14:46:25.553Z,32.80
2019-06-27T14:49:05.598Z,32.70
2019-06-27T14:51:45.185Z,32.70
2019-06-27T14:54:22.468Z,32.50
2019-06-27T14:56:59.535Z,32.30
2019-06-27T14:59:39.238Z,32.10
2019-06-27T15:02:16.722Z,32.00
2019-06-27T15:04:54.031Z,32.10
2019-06-27T15:07:30.268Z,32.20
2019-06-27T15:10:04.760Z,32.70
2019-06-27T15:12:56.489Z,32.60
2019-06-27T15:15:23.971Z,32.60
2019-06-27T15:18:00.790Z,32.70
2019-06-27T15:20:40.684Z,33.00
2019-06-27T15:23:13.763Z,32.70
2019-06-27T15:25:52.615Z,32.40
2019-06-27T15:28:34.203Z,32.50
2019-06-27T15:31:11.897Z,32.10
2019-06-27T15:33:44.231Z,32.20
2019-06-27T15:36:18.103Z,32.30
2019-06-27T15:38:56.080Z,32.50
2019-06-27T15:41:34.578Z,32.60
2019-06-27T15:44:13.940Z,32.60
2019-06-27T15:46:49.309Z,32.80
2019-06-27T15:49:29.874Z,33.30
2019-06-27T15:51:59.489Z,34.50
2019-06-27T15:54:37.539Z,35.40
2019-06-27T15:57:12.326Z,35.20
2019-06-27T15:59:53.161Z,35.20
2019-06-27T16:02:31.592Z,35.70
2019-06-27T16:05:10.506Z,37.00
2019-06-27T16:07:49.166Z,37.40
2019-06-27T16:10:27.237Z,37.40
2019-06-27T16:13:06.187Z,38.30
2019-06-27T16:15:43.263Z,38.50
2019-06-27T16:18:18.511Z,38.90
2019-06-27T16:20:57.523Z,38.90
2019-06-27T16:23:33.885Z,39.40
2019-06-27T16:26:08.885Z,39.40
2019-06-27T16:28:46.652Z,39.40
2019-06-27T16:31:24.119Z,39.10
2019-06-27T16:34:02.214Z,39.60
2019-06-27T16:36:38.494Z,40.20
2019-06-27T16:39:17.243Z,40.40
2019-06-27T16:41:52.227Z,40.50
2019-06-27T16:44:26.958Z,40.70
2019-06-27T16:47:03.263Z,40.30
2019-06-27T16:49:42.091Z,40.10
2019-06-27T16:52:21.979Z,40.10
2019-06-27T16:55:01.815Z,39.10
2019-06-27T16:57:35.688Z,39.10
2019-06-27T17:00:10.620Z,39.10
2019-06-27T17:02:49.206Z,38.70
2019-06-27T17:05:23.262Z,38.70
2019-06-27T17:08:00.199Z,39.00
2019-06-27T17:10:40.155Z,38.20
2019-06-27T17:13:20.167Z,37.70
2019-06-27T17:16:00.016Z,38.10
2019-06-27T17:18:38.487Z,38.60
2019-06-27T17:21:09.187Z,37.50
2019-06-27T17:23:43.536Z,37.00
2019-06-27T17:26:17.608Z,37.00
2019-06-27T17:28:53.260Z,36.90
2019-06-27T17:31:26.555Z,37.00
2019-06-27T17:33:57.216Z,37.10
2019-06-27T17:36:38.693Z,37.00
2019-06-27T17:39:17.548Z,36.00
2019-06-27T17:41:52.505Z,36.50
2019-06-27T17:44:29.650Z,36.70
2019-06-27T17:47:03.260Z,36.60
2019-06-27T17:49:43.260Z,36.00
2019-06-27T17:52:12.889Z,35.40
2019-06-27T17:54:53.259Z,34.40
2019-06-27T17:57:28.599Z,34.40
2019-06-27T18:00:04.150Z,34.60
2019-06-27T18:02:35.598Z,34.20
2019-06-27T18:05:10.396Z,34.00
2019-06-27T18:07:45.460Z,33.90
2019-06-27T18:10:21.304Z,33.90
2019-06-27T18:12:59.229Z,34.10
2019-06-27T18:15:39.052Z,34.10
2019-06-27T18:18:16.076Z,33.30
2019-06-27T18:20:52.906Z,33.60
2019-06-27T18:23:34.991Z,33.40
2019-06-27T18:26:12.190Z,33.00
2019-06-27T18:28:45.167Z,33.10
2019-06-27T18:31:24.133Z,32.70
2019-06-27T18:34:01.064Z,32.40
2019-06-27T18:36:37.143Z,32.30
2019-06-27T18:39:17.278Z,32.00
2019-06-27T18:41:52.030Z,31.40
2019-06-27T18:44:32.758Z,30.60
2019-06-27T18:47:09.714Z,30.00
2019-06-27T18:49:46.829Z,29.60
2019-06-27T18:52:24.766Z,29.20
2019-06-27T18:55:00.944Z,28.90
2019-06-27T18:57:43.257Z,28.60
2019-06-27T19:00:21.101Z,28.40
2019-06-27T19:02:59.974Z,28.20
2019-06-27T19:05:34.592Z,28.00
2019-06-27T19:08:12.419Z,27.90
2019-06-27T19:10:45.835Z,27.80
2019-06-27T19:13:22.591Z,27.60
2019-06-27T19:15:59.358Z,27.50
2019-06-27T19:18:47.155Z,27.50
2019-06-27T19:21:25.112Z,27.50
2019-06-27T19:24:11.832Z,27.40
2019-06-27T19:26:47.555Z,27.20
2019-06-27T19:29:27.411Z,27.10
2019-06-27T19:32:04.269Z,27.10
2019-06-27T19:34:39.857Z,27.00
2019-06-27T19:37:18.361Z,26.90
2019-06-27T19:40:00.424Z,27.00
2019-06-27T19:42:37.257Z,27.00
2019-06-27T19:45:15.330Z,26.90
2019-06-27T19:47:52.344Z,26.90
2019-06-27T19:50:32.156Z,26.90
2019-06-27T19:53:13.258Z,26.90
2019-06-27T19:55:49.008Z,26.80
2019-06-27T19:58:28.906Z,26.80
2019-06-27T20:01:07.966Z,26.70
2019-06-27T20:03:41.500Z,26.60
2019-06-27T20:06:18.040Z,26.60
2019-06-27T20:08:57.729Z,26.50
2019-06-27T20:11:32.829Z,26.50
2019-06-27T20:14:11.987Z,26.50
2019-06-27T20:16:49.415Z,26.40
2019-06-27T20:19:29.648Z,26.40
2019-06-27T20:22:05.577Z,26.20
2019-06-27T20:24:45.498Z,26.20
2019-06-27T20:27:25.498Z,26.10
2019-06-27T20:30:00.555Z,26.00
2019-06-27T20:32:41.077Z,25.90
2019-06-27T20:35:18.294Z,25.80
2019-06-27T20:37:51.933Z,25.70
2019-06-27T20:40:29.100Z,25.60
2019-06-27T20:43:09.999Z,25.50
2019-06-27T20:45:48.853Z,25.50
2019-06-27T20:48:26.093Z,25.40
2019-06-27T20:51:03.262Z,25.40
2019-06-27T20:53:41.127Z,25.20
2019-06-27T20:56:16.660Z,25.10
2019-06-27T20:58:54.919Z,25.10
2019-06-27T21:01:37.075Z,25.00
2019-06-27T21:04:16.624Z,25.00
2019-06-27T21:06:54.088Z,24.90
2019-06-27T21:09:32.595Z,24.80
2019-06-27T21:12:12.429Z,24.80
2019-06-27T21:14:51.382Z,24.80
2019-06-27T21:17:33.843Z,24.80
2019-06-27T21:20:14.383Z,24.70
2019-06-27T21:22:56.069Z,24.70
2019-06-27T21:25:39.066Z,24.60
2019-06-27T21:28:14.783Z,24.60
2019-06-27T21:30:49.949Z,24.40
2019-06-27T21:33:26.718Z,24.30
2019-06-27T21:36:04.961Z,24.30
2019-06-27T21:38:44.521Z,24.20
2019-06-27T21:41:22.209Z,24.20
2019-06-27T21:44:00.121Z,24.20
2019-06-27T21:46:39.831Z,24.00
2019-06-27T21:49:16.420Z,23.90
2019-06-27T21:51:53.260Z,23.90
2019-06-27T21:54:31.069Z,23.80
2019-06-27T21:57:09.282Z,23.80
2019-06-27T21:59:46.753Z,23.70
2019-06-27T22:02:23.260Z,23.70
2019-06-27T22:05:03.235Z,23.70
2019-06-27T22:07:41.530Z,23.60
2019-06-27T22:10:19.212Z,23.60
2019-06-27T22:12:56.663Z,23.50
2019-06-27T22:15:30.990Z,23.40
2019-06-27T22:18:06.056Z,23.30
2019-06-27T22:20:39.650Z,23.30
2019-06-27T22:23:17.277Z,23.20
2019-06-27T22:25:56.855Z,23.20
2019-06-27T22:28:34.100Z,23.10
2019-06-27T22:31:12.565Z,23.00
2019-06-27T22:33:58.495Z,23.00
2019-06-27T22:36:30.843Z,22.90
2019-06-27T22:39:36.237Z,22.90
2019-06-27T22:42:19.270Z,22.90
2019-06-27T22:45:16.174Z,22.80
2019-06-27T22:48:13.094Z,22.80
2019-06-27T22:50:56.533Z,22.70
2019-06-27T22:53:36.068Z,22.60
2019-06-27T22:56:15.267Z,22.50
2019-06-27T22:58:47.901Z,22.50
2019-06-27T23:01:26.276Z,22.50
2019-06-27T23:04:04.344Z,22.40
2019-06-27T23:06:43.260Z,22.40
2019-06-27T23:09:20.705Z,22.40
2019-06-27T23:12:00.542Z,22.30
2019-06-27T23:14:41.968Z,22.30
2019-06-27T23:17:16.848Z,22.20
2019-06-27T23:19:56.117Z,22.20
2019-06-27T23:22:30.098Z,22.00
2019-06-27T23:25:07.108Z,21.90
2019-06-27T23:27:45.663Z,21.80
2019-06-27T23:30:23.260Z,21.70
2019-06-27T23:33:02.421Z,21.70
2019-06-27T23:35:41.042Z,21.70
2019-06-27T23:38:18.217Z,21.60
2019-06-27T23:40:54.427Z,21.60
2019-06-27T23:43:37.201Z,21.50
2019-06-27T23:46:16.447Z,21.50
2019-06-27T23:48:58.048Z,21.40
2019-06-27T23:51:35.461Z,21.40
2019-06-27T23:54:12.183Z,21.30
2019-06-27T23:56:47.352Z,21.20
2019-06-27T23:59:24.668Z,21.20
